KELM/ELM METAR and TAF weather

Enter ICAO airport designator
Station Type Date Time Source
KELM METAR 2021/01/22 06:53 UTC NOAA

KELM 220653Z AUTO 26011KT 4SM -SN BKN031 BKN041 OVC085 02/M02 A2956 RMK AO2 SNE14B41 SLP016 P0000 T00171017


Station Type Date Time Source
KELM Decoded METAR 2021/01/22 06:53 UTC NOAA

ELMIRA COUNTY AIRPORT, NY, United States (KELM) 42-10N 76-54W 302M
Jan 22, 2021 - 01:53 AM EST / 2021.01.22 0653 UTC
Wind: from the W (260 degrees) at 13 MPH (11 KT):0
Visibility: 4 mile(s):0
Sky conditions: overcast
Weather: light snow
Precipitation last hour: A trace
Temperature: 35.1 F (1.7 C)
Dew Point: 28.9 F (-1.7 C)
Relative Humidity: 78%
Pressure (altimeter): 29.56 in. Hg (1001 hPa)
ob: KELM 220653Z AUTO 26011KT 4SM -SN BKN031 BKN041 OVC085 02/M02 A2956 RMK AO2 SNE14B41 SLP016 P0000 T00171017
cycle: 7

Station Type Date Time Source
KELM TAF 2021/01/22 06:34 UTC NOAA

TAF KELM 220532Z 2206/2306 25009KT P6SM OVC040
FM220900 26009KT P6SM -SN OVC025
FM221500 27014G20KT P6SM -SN OVC025
FM222000 29012G18KT P6SM OVC050

Example: see airport list